Varnado, Louisiana
Current Conditions -  °F | °C
As of 11:53 AM on Friday 19 Dec 2014 (Local Time) from KHBG Reporting Station
Overcast Overcast  
Wind Chill: 46°   Ceiling: 2300
Heat Index: 49°   Visibility: 10mi
Dew Point: 43°   Wind: 7mph
Humidity: 80%   Direction: 60°ENE
Pressure: 30.15"   Gusts: NA
Location:  30.9842°N, 89.752°W
Report Text: KHBG 191753Z AUTO 06006KT 10SM OVC023 09/06 A3015 RMK AO2 SLP211 60029 T00940061 10100 20083 56027
Loading
Personal Weather Stations






























Interactive Weather Map New forecast layout! Learn more

10-Day Weather Forecast

Advertisements
Track Severe Weather on mobile